Time;durP1;ratioP1;P1;durP2;ratioP2;P2;SDS_P1;SDS_P2;PMS_P1;PMS_P2;Temp;Humidity;BMP_temperature;BMP_pressure;BME280_temperature;BME280_humidity;BME280_pressure;Samples;Min_cycle;Max_cycle;Signal;HPM_P1;HPM_P2
2022/09/21 00:00:25;;;;;;;0.00;0.00;;;;;;;14.96;61.21;101047.91;5009848;28;20030;-85
2022/09/21 00:02:55;;;;;;;0.30;0.00;;;;;;;14.90;62.38;101058.06;5010201;28;20572;-85
2022/09/21 00:05:21;;;;;;;0.63;0.00;;;;;;;14.69;64.47;101055.00;5009611;28;20336;-86
2022/09/21 00:07:46;;;;;;;0.10;0.00;;;;;;;14.60;65.05;101056.78;5008179;28;20049;-86
2022/09/21 00:10:11;;;;;;;0.00;0.00;;;;;;;14.51;66.54;101064.78;5007727;28;20038;-86
2022/09/21 00:12:40;;;;;;;0.40;0.00;;;;;;;14.36;67.76;101058.41;5008211;28;20041;-86
2022/09/21 00:15:07;;;;;;;0.20;0.00;;;;;;;14.23;68.26;101054.41;5005604;28;20104;-86
2022/09/21 00:17:33;;;;;;;0.40;0.10;;;;;;;14.19;69.06;101066.16;5006349;28;20088;-86
2022/09/21 00:20:04;;;;;;;0.40;0.10;;;;;;;14.10;69.41;101061.88;4997584;28;20030;-84
2022/09/21 00:22:31;;;;;;;0.45;0.00;;;;;;;14.06;70.54;101054.47;5008543;28;20053;-85
2022/09/21 00:24:56;;;;;;;0.22;0.00;;;;;;;13.95;70.39;101064.19;5004338;28;20036;-85
2022/09/21 00:27:28;;;;;;;0.15;0.00;;;;;;;13.91;72.23;101067.28;5008865;28;20030;-84
2022/09/21 00:30:02;;;;;;;0.30;0.00;;;;;;;13.77;72.52;101071.25;5004240;28;20065;-86
2022/09/21 00:32:30;;;;;;;0.60;0.08;;;;;;;13.70;71.52;101077.25;4990120;28;20041;-85
2022/09/21 00:34:56;;;;;;;0.40;0.00;;;;;;;13.69;71.78;101079.06;5008195;28;20041;-85
2022/09/21 00:37:21;;;;;;;0.15;0.00;;;;;;;13.68;72.30;101066.09;5007359;28;20087;-84
2022/09/21 00:39:47;;;;;;;0.65;0.10;;;;;;;13.61;72.35;101078.97;5005790;28;20033;-85
2022/09/21 00:42:18;;;;;;;2.80;0.00;;;;;;;13.60;71.97;101080.75;5009247;28;20073;-86
2022/09/21 00:44:44;;;;;;;0.35;0.00;;;;;;;13.75;69.53;101090.69;5003684;28;20025;-86
2022/09/21 00:47:14;;;;;;;0.13;0.00;;;;;;;13.84;68.08;101088.00;5005254;28;20133;-85
2022/09/21 00:49:41;;;;;;;0.10;0.00;;;;;;;13.82;69.98;101083.88;5021807;28;20058;-86
2022/09/21 00:52:11;;;;;;;0.20;0.00;;;;;;;13.66;71.05;101091.63;5019063;28;20041;-85
2022/09/21 00:55:07;;;;;;;0.10;0.00;;;;;;;13.47;71.34;101090.78;5009140;28;20525;-85
2022/09/21 00:57:34;;;;;;;0.45;0.10;;;;;;;13.43;73.60;101086.81;5007337;28;20080;-85
2022/09/21 01:00:03;;;;;;;0.55;0.00;;;;;;;13.37;74.60;101095.25;5004927;28;20128;-84
2022/09/21 01:02:28;;;;;;;0.52;0.00;;;;;;;13.22;75.04;101101.97;5007826;28;20096;-85
2022/09/21 01:04:55;;;;;;;0.35;0.00;;;;;;;13.14;75.33;101100.03;5007464;28;20041;-84
2022/09/21 01:07:28;;;;;;;0.10;0.00;;;;;;;13.18;74.38;101100.59;5008933;28;20026;-85
2022/09/21 01:10:01;;;;;;;0.08;0.00;;;;;;;13.11;74.67;101104.75;5007657;28;20033;-85
2022/09/21 01:13:01;;;;;;;0.75;0.10;;;;;;;13.02;73.35;101111.66;5008426;28;20025;-84
2022/09/21 01:15:51;;;;;;;0.82;0.00;;;;;;;12.94;75.51;101117.59;5004202;28;20462;-85
2022/09/21 01:18:46;;;;;;;1.83;0.00;;;;;;;12.83;76.43;101109.94;5004968;28;20497;-84
2022/09/21 01:21:23;;;;;;;0.10;0.00;;;;;;;12.72;77.96;101125.81;5005362;28;20046;-85
2022/09/21 01:23:51;;;;;;;4.05;0.05;;;;;;;12.68;78.30;101129.69;5007396;28;20030;-84
2022/09/21 01:26:25;;;;;;;0.30;0.03;;;;;;;12.65;78.56;101122.13;5004272;28;20037;-85
2022/09/21 01:29:11;;;;;;;0.68;0.10;;;;;;;12.53;79.45;101125.88;5006189;28;20124;-84
2022/09/21 01:31:41;;;;;;;0.10;0.00;;;;;;;12.41;79.97;101121.75;5007975;28;20037;-83
2022/09/21 01:34:14;;;;;;;0.63;0.00;;;;;;;12.35;77.92;101127.53;5004636;28;20390;-84
2022/09/21 01:36:43;;;;;;;0.32;0.03;;;;;;;12.41;78.00;101122.56;5019581;28;20389;-85
2022/09/21 01:39:13;;;;;;;0.20;0.08;;;;;;;12.35;78.92;101127.53;5005904;28;20367;-86
2022/09/21 01:41:41;;;;;;;1.65;0.00;;;;;;;12.12;79.94;101114.78;5003966;28;20123;-85
2022/09/21 01:44:12;;;;;;;1.55;0.10;;;;;;;11.93;80.81;101127.84;5004850;28;20030;-84
2022/09/21 01:46:38;;;;;;;0.45;0.00;;;;;;;11.87;81.71;101128.38;4998861;28;20088;-85
2022/09/21 01:49:19;;;;;;;0.43;0.10;;;;;;;11.90;81.01;101133.34;5003621;28;20062;-84
2022/09/21 01:51:53;;;;;;;0.43;0.00;;;;;;;11.98;81.72;101130.88;5007540;28;20052;-84
2022/09/21 01:54:23;;;;;;;0.93;0.10;;;;;;;11.93;82.49;101130.44;5007298;28;20057;-85
2022/09/21 01:57:20;;;;;;;0.20;0.00;;;;;;;11.79;82.31;101130.88;5006929;28;20032;-84
2022/09/21 01:59:51;;;;;;;0.20;0.08;;;;;;;11.69;83.83;101137.84;4990839;28;20120;-87
2022/09/21 02:02:41;;;;;;;0.10;0.00;;;;;;;11.67;83.69;101137.16;5008568;28;20038;-85
2022/09/21 02:05:07;;;;;;;0.20;0.10;;;;;;;11.67;84.20;101137.16;5009723;28;20065;-85
2022/09/21 02:07:34;;;;;;;0.35;0.00;;;;;;;11.56;84.78;101135.47;5009726;28;20482;-85
2022/09/21 02:10:01;;;;;;;0.15;0.08;;;;;;;11.50;84.87;101136.84;5011047;28;20036;-86
2022/09/21 02:12:30;;;;;;;0.25;0.10;;;;;;;11.58;84.52;101141.38;5008041;28;20543;-85
2022/09/21 02:14:56;;;;;;;0.20;0.10;;;;;;;11.59;84.40;101138.63;5010676;28;20076;-85
2022/09/21 02:17:25;;;;;;;0.45;0.10;;;;;;;11.57;84.94;101140.56;5006489;28;20034;-84
2022/09/21 02:20:13;;;;;;;1.88;0.10;;;;;;;11.42;84.28;101148.88;5006998;28;20034;-86
2022/09/21 02:22:48;;;;;;;1.00;0.10;;;;;;;11.32;85.56;101148.88;5007415;28;20033;-85
2022/09/21 02:25:33;;;;;;;1.70;0.10;;;;;;;11.24;85.06;101146.94;5010484;28;20034;-86
2022/09/21 02:28:07;;;;;;;1.10;0.10;;;;;;;11.22;86.03;101146.25;4999907;28;20176;-85
2022/09/21 02:30:34;;;;;;;0.30;0.10;;;;;;;11.18;86.93;101151.84;5009791;28;20030;-85
2022/09/21 02:33:10;;;;;;;2.05;0.10;;;;;;;11.14;87.61;101150.47;5008175;28;20030;-84
2022/09/21 02:35:50;;;;;;;0.52;0.10;;;;;;;11.08;87.67;101150.97;5005740;28;20044;-85
2022/09/21 02:38:38;;;;;;;0.20;0.10;;;;;;;11.01;88.81;101152.47;5008305;28;20123;-84
2022/09/21 02:41:15;;;;;;;0.30;0.10;;;;;;;10.93;88.72;101151.31;5008232;28;20041;-85
2022/09/21 02:43:44;;;;;;;2.13;0.10;;;;;;;10.86;88.96;101149.41;4990953;28;20034;-85
2022/09/21 02:46:16;;;;;;;1.67;0.10;;;;;;;10.83;89.53;101150.47;5000273;28;20375;-84
2022/09/21 02:48:52;;;;;;;1.95;0.10;;;;;;;10.74;90.19;101153.84;5009084;28;20054;-85
2022/09/21 02:51:29;;;;;;;0.30;0.10;;;;;;;10.67;90.68;101152.72;5008502;28;20044;-85
2022/09/21 02:53:57;;;;;;;0.50;0.10;;;;;;;10.59;91.27;101155.13;5008997;28;20030;-85
2022/09/21 02:56:24;;;;;;;0.52;0.10;;;;;;;10.55;90.95;101154.56;5011504;28;20100;-85
2022/09/21 02:58:53;;;;;;;0.25;0.03;;;;;;;10.52;91.39;101153.97;5008764;28;20053;-84
2022/09/21 03:01:20;;;;;;;0.70;0.10;;;;;;;10.42;92.30;101164.34;5005911;28;20044;-84
2022/09/21 03:03:46;;;;;;;1.77;0.10;;;;;;;10.40;92.61;101165.44;5010989;28;20442;-85
2022/09/21 03:06:12;;;;;;;1.35;0.10;;;;;;;10.42;91.88;101158.28;5005760;28;20030;-84
2022/09/21 03:08:37;;;;;;;1.00;0.13;;;;;;;10.35;92.19;101163.22;5026551;28;20032;-85
2022/09/21 03:11:03;;;;;;;0.88;0.20;;;;;;;10.29;92.96;101169.75;5003821;28;20117;-84
2022/09/21 03:13:29;;;;;;;0.60;0.10;;;;;;;10.20;93.42;101165.28;5011500;28;20030;-84
2022/09/21 03:16:00;;;;;;;0.40;0.10;;;;;;;10.15;93.42;101172.59;5033602;28;20036;-84
2022/09/21 03:18:25;;;;;;;0.35;0.10;;;;;;;10.07;94.44;101175.00;5015486;28;20052;-84
2022/09/21 03:20:51;;;;;;;1.95;0.10;;;;;;;10.05;94.33;101182.09;5005892;28;20493;-85
2022/09/21 03:23:16;;;;;;;0.28;0.10;;;;;;;10.02;94.95;101174.53;5007424;28;20040;-83
2022/09/21 03:25:46;;;;;;;0.45;0.00;;;;;;;9.93;94.61;101188.28;5022083;28;20128;-84
2022/09/21 03:28:12;;;;;;;1.38;0.10;;;;;;;9.85;95.34;101188.94;5009049;28;20032;-87
2022/09/21 03:30:38;;;;;;;0.55;0.10;;;;;;;9.86;95.28;101192.38;5008958;28;20116;-88
2022/09/21 03:33:04;;;;;;;0.10;0.10;;;;;;;9.82;95.41;101196.97;5005776;28;20116;-86
2022/09/21 03:35:30;;;;;;;0.35;0.00;;;;;;;9.86;95.39;101202.78;5008294;28;20038;-86
2022/09/21 03:37:56;;;;;;;0.30;0.10;;;;;;;9.89;95.26;101199.94;5007487;28;20033;-87
2022/09/21 03:40:22;;;;;;;0.30;0.03;;;;;;;9.82;94.67;101206.56;5008705;28;20053;-84
2022/09/21 03:42:48;;;;;;;1.40;0.00;;;;;;;9.85;95.08;101195.91;5010952;28;20018;-86
2022/09/21 03:45:13;;;;;;;1.58;0.10;;;;;;;9.87;94.98;101200.06;5005150;28;20046;-86
2022/09/21 03:47:39;;;;;;;0.88;0.10;;;;;;;9.85;95.11;101198.50;5007525;28;20478;-86
2022/09/21 03:50:08;;;;;;;0.47;0.08;;;;;;;9.78;95.31;101215.56;5008750;28;20030;-86
2022/09/21 03:52:36;;;;;;;0.30;0.10;;;;;;;9.80;95.84;101204.09;5007370;28;20037;-86
2022/09/21 03:55:05;;;;;;;1.02;0.10;;;;;;;9.73;96.13;101207.28;5007940;28;20079;-88
2022/09/21 03:57:31;;;;;;;3.67;0.20;;;;;;;9.64;96.56;101206.22;5005770;28;20087;-86
2022/09/21 03:59:56;;;;;;;2.58;0.40;;;;;;;9.55;97.08;101199.97;5006639;28;20026;-87
2022/09/21 04:02:22;;;;;;;0.90;0.20;;;;;;;9.49;97.75;101204.81;5006479;28;20627;-87
2022/09/21 04:04:47;;;;;;;0.10;0.00;;;;;;;9.46;97.96;101210.25;5006386;28;20045;-86
2022/09/21 04:07:14;;;;;;;3.45;0.10;;;;;;;9.41;98.51;101221.03;5021899;28;20125;-88
2022/09/21 04:09:40;;;;;;;0.98;0.20;;;;;;;9.46;98.09;101216.28;5008610;28;20034;-85
2022/09/21 04:12:06;;;;;;;1.08;0.13;;;;;;;9.48;98.23;101213.56;5006187;28;20034;-88
2022/09/21 04:14:31;;;;;;;0.32;0.10;;;;;;;9.47;98.15;101215.34;5005265;28;20037;-87
2022/09/21 04:16:57;;;;;;;0.10;0.10;;;;;;;9.44;98.05;101217.38;5009382;28;20351;-87
2022/09/21 04:19:22;;;;;;;0.32;0.10;;;;;;;9.28;97.80;101218.56;5014333;28;20094;-86
2022/09/21 04:21:50;;;;;;;1.42;0.10;;;;;;;9.31;96.77;101228.72;5018339;28;20030;-86
2022/09/21 04:24:18;;;;;;;1.20;0.10;;;;;;;9.51;95.96;101226.34;5004648;28;20041;-89
2022/09/21 04:26:44;;;;;;;1.17;0.13;;;;;;;9.59;96.45;101227.41;5001802;28;20454;-87
2022/09/21 04:29:11;;;;;;;0.40;0.10;;;;;;;9.59;97.29;101223.97;5007154;28;20117;-87
2022/09/21 04:31:37;;;;;;;0.30;0.10;;;;;;;9.55;97.56;101225.97;5007133;28;20026;-87
2022/09/21 04:34:02;;;;;;;0.30;0.10;;;;;;;9.39;97.93;101237.72;5002985;28;20046;-88
2022/09/21 04:36:28;;;;;;;0.82;0.10;;;;;;;9.41;97.72;101233.22;5004833;28;20033;-88
2022/09/21 04:38:54;;;;;;;0.20;0.10;;;;;;;9.40;97.77;101232.41;5001745;28;20165;-89
2022/09/21 04:41:19;;;;;;;0.32;0.10;;;;;;;9.36;97.83;101241.38;4994552;28;20026;-87
2022/09/21 04:43:46;;;;;;;1.23;0.10;;;;;;;9.38;97.54;101242.09;4990764;28;20088;-87
2022/09/21 04:46:17;;;;;;;0.77;0.32;;;;;;;9.34;99.32;101251.06;5003624;28;20045;-87
2022/09/21 04:48:42;;;;;;;1.85;0.10;;;;;;;9.34;98.91;101248.47;5007672;28;20017;-87
2022/09/21 04:51:10;;;;;;;1.58;0.10;;;;;;;9.37;99.25;101252.59;5007873;28;20038;-87
2022/09/21 04:53:37;;;;;;;2.13;0.13;;;;;;;9.28;99.67;101259.34;5008403;28;20034;-87
2022/09/21 04:56:04;;;;;;;2.28;0.10;;;;;;;9.27;99.12;101253.31;5007530;28;20038;-87
2022/09/21 04:58:30;;;;;;;3.03;0.15;;;;;;;9.32;98.97;101255.56;5009120;28;20042;-88
2022/09/21 05:00:56;;;;;;;3.03;0.13;;;;;;;9.23;99.79;101266.66;5006416;28;20030;-87
2022/09/21 05:03:23;;;;;;;2.47;0.20;;;;;;;9.19;100.00;101252.22;5004792;28;20187;-88
2022/09/21 05:05:54;;;;;;;1.48;0.17;;;;;;;9.15;100.00;101259.44;5004784;28;20091;-86
2022/09/21 05:11:06;;;;;;;0.75;0.10;;;;;;;9.10;100.00;101258.94;5007428;28;20520;-86
2022/09/21 05:13:31;;;;;;;1.13;0.20;;;;;;;9.13;100.00;101265.69;5007963;28;20033;-87
2022/09/21 05:15:57;;;;;;;3.40;0.45;;;;;;;9.10;100.00;101260.72;5004436;28;20370;-87
2022/09/21 05:18:22;;;;;;;2.17;0.20;;;;;;;9.06;100.00;101259.28;5006031;28;20064;-87
2022/09/21 05:20:59;;;;;;;1.13;0.55;;;;;;;9.06;100.00;101265.31;5005269;28;20026;-86
2022/09/21 05:23:25;;;;;;;1.90;0.22;;;;;;;9.05;100.00;101268.84;5006605;28;20038;-85
2022/09/21 05:25:51;;;;;;;1.40;0.22;;;;;;;9.08;100.00;101267.81;5002432;28;20038;-86
2022/09/21 05:28:18;;;;;;;1.27;0.20;;;;;;;9.09;100.00;101270.28;5003798;28;20099;-87
2022/09/21 05:30:47;;;;;;;0.63;0.13;;;;;;;9.11;100.00;101270.19;5005784;28;20389;-86
2022/09/21 05:33:18;;;;;;;2.20;0.10;;;;;;;9.17;100.00;101275.75;5004906;28;20450;-86
2022/09/21 05:35:49;;;;;;;2.00;0.17;;;;;;;9.28;100.00;101274.94;5005162;28;20046;-87
2022/09/21 05:38:17;;;;;;;2.47;0.35;;;;;;;9.39;99.77;101261.94;5009606;28;20115;-86
2022/09/21 05:40:43;;;;;;;3.95;0.60;;;;;;;9.53;100.00;101269.50;5011206;28;20030;-86
2022/09/21 05:43:10;;;;;;;5.15;0.30;;;;;;;9.59;100.00;101274.22;5010296;28;20033;-85
2022/09/21 05:45:40;;;;;;;1.95;0.30;;;;;;;9.57;99.56;101270.91;5009872;28;20513;-87
2022/09/21 05:48:26;;;;;;;5.88;1.05;;;;;;;9.62;98.91;101279.19;5026745;28;20065;-87
2022/09/21 05:50:57;;;;;;;;;;;;;;;9.71;98.41;101277.66;5010532;28;20042;-88
2022/09/21 05:53:48;;;;;;;1.83;0.60;;;;;;;9.85;99.59;101279.19;5023786;28;20389;-87
2022/09/21 05:56:23;;;;;;;3.45;1.05;;;;;;;9.92;99.55;101280.38;5009163;28;20034;-87
2022/09/21 05:58:51;;;;;;;5.90;0.60;;;;;;;10.03;98.61;101295.13;4993520;28;20393;-87
2022/09/21 06:01:39;;;;;;;3.67;0.98;;;;;;;10.20;96.62;101281.66;5014099;28;20068;-85
2022/09/21 06:04:10;;;;;;;3.78;0.63;;;;;;;10.29;96.96;101286.94;5015208;28;20029;-86
2022/09/21 06:06:35;;;;;;;6.43;0.50;;;;;;;10.36;95.96;101294.28;5007446;28;20451;-87
2022/09/21 06:09:00;;;;;;;5.85;0.30;;;;;;;10.41;95.34;101290.31;4993357;28;20064;-87
2022/09/21 06:11:26;;;;;;;7.30;0.30;;;;;;;10.53;95.16;101296.34;4993433;28;20035;-88
2022/09/21 06:13:51;;;;;;;2.67;0.20;;;;;;;10.65;95.13;101290.13;5011669;28;20167;-85
2022/09/21 06:16:17;;;;;;;7.32;0.60;;;;;;;10.76;93.99;101297.91;5011663;28;20705;-87
2022/09/21 06:18:42;;;;;;;3.25;0.40;;;;;;;10.96;92.87;101298.84;5008730;28;20041;-88
2022/09/21 06:21:08;;;;;;;3.17;0.40;;;;;;;11.10;92.44;101298.53;5007879;28;20026;-86
2022/09/21 06:23:34;;;;;;;6.65;0.20;;;;;;;11.25;92.17;101289.44;5010542;28;20038;-85
2022/09/21 06:25:59;;;;;;;5.57;0.10;;;;;;;11.23;87.74;101293.13;5024434;28;20034;-88
2022/09/21 06:28:25;;;;;;;8.85;0.35;;;;;;;11.33;90.25;101296.63;5026235;28;20056;-87
2022/09/21 06:30:52;;;;;;;3.38;0.88;;;;;;;11.47;88.83;101304.09;5010766;28;20398;-86
2022/09/21 06:33:22;;;;;;;7.82;0.40;;;;;;;11.59;89.13;101297.03;5010783;28;20025;-85
2022/09/21 06:35:56;;;;;;;4.20;0.20;;;;;;;11.79;88.70;101308.41;5008196;28;20498;-87
2022/09/21 06:38:23;;;;;;;4.68;0.10;;;;;;;11.97;87.98;101306.81;5010951;28;20034;-88
2022/09/21 06:40:49;;;;;;;7.72;0.30;;;;;;;12.13;86.29;101307.13;5010453;28;20429;-88
2022/09/21 06:43:15;;;;;;;2.95;0.20;;;;;;;12.25;85.83;101313.91;5007956;28;20030;-86
2022/09/21 06:45:41;;;;;;;2.15;0.10;;;;;;;12.40;84.96;101314.31;5006186;28;20046;-87
2022/09/21 06:48:06;;;;;;;1.83;0.20;;;;;;;12.54;84.01;101311.31;5007743;28;20501;-88
2022/09/21 06:50:32;;;;;;;1.02;0.20;;;;;;;12.65;83.14;101301.69;5007817;28;20038;-86
2022/09/21 06:53:02;;;;;;;1.75;0.10;;;;;;;12.81;83.09;101302.75;5010893;28;20048;-89
2022/09/21 06:55:28;;;;;;;1.55;0.10;;;;;;;12.90;80.30;101311.56;5007598;28;20061;-88
2022/09/21 06:58:01;;;;;;;2.65;0.28;;;;;;;13.03;78.81;101311.28;5010423;28;21584;-86
2022/09/21 07:00:27;;;;;;;0.40;0.10;;;;;;;13.16;79.90;101301.38;5007807;28;20047;-86
2022/09/21 07:02:52;;;;;;;0.70;0.10;;;;;;;13.30;79.96;101300.91;4998400;28;20034;-87
2022/09/21 07:05:18;;;;;;;6.43;0.35;;;;;;;13.39;79.52;101302.69;5012616;28;20022;-85
2022/09/21 07:07:43;;;;;;;0.90;0.10;;;;;;;13.48;79.09;101306.25;5011172;28;20026;-86
2022/09/21 07:10:09;;;;;;;1.02;0.30;;;;;;;13.67;77.67;101307.97;5001149;28;20030;-83
2022/09/21 07:12:35;;;;;;;0.60;0.17;;;;;;;13.78;77.53;101308.59;4991344;28;20042;-85
2022/09/21 07:15:01;;;;;;;1.52;0.10;;;;;;;13.90;78.35;101298.75;5000011;28;20037;-86
2022/09/21 07:17:35;;;;;;;1.65;0.10;;;;;;;13.94;77.67;101307.97;5008683;28;20454;-85
2022/09/21 07:20:01;;;;;;;1.77;0.10;;;;;;;14.05;78.22;101312.22;4999697;28;20034;-85
2022/09/21 07:22:31;;;;;;;0.50;0.10;;;;;;;14.15;76.27;101310.34;5011949;28;20037;-85
2022/09/21 07:24:57;;;;;;;0.22;0.10;;;;;;;14.16;76.34;101312.84;5013048;28;20505;-85
2022/09/21 07:27:24;;;;;;;1.48;0.10;;;;;;;14.23;76.30;101303.38;5024243;28;20229;-83
2022/09/21 07:29:50;;;;;;;0.40;0.10;;;;;;;14.32;75.90;101316.56;5026836;28;20037;-85
2022/09/21 07:32:16;;;;;;;0.30;0.00;;;;;;;14.50;75.13;101318.28;5023964;28;20082;-87
2022/09/21 07:34:41;;;;;;;0.73;0.00;;;;;;;14.67;73.63;101316.63;5026435;28;20038;-83
2022/09/21 07:37:07;;;;;;;0.25;0.00;;;;;;;14.75;73.20;101314.06;5033936;28;20029;-90
2022/09/21 07:39:32;;;;;;;0.38;0.00;;;;;;;14.84;73.96;101318.41;5010424;28;20335;-84
2022/09/21 07:41:58;;;;;;;2.47;0.10;;;;;;;14.85;73.82;101320.06;5007049;28;20030;-84
2022/09/21 07:44:24;;;;;;;1.98;0.00;;;;;;;14.89;73.15;101321.41;5006061;28;21284;-86
2022/09/21 07:46:49;;;;;;;0.98;0.10;;;;;;;14.91;73.47;101318.63;5006567;28;20046;-84
2022/09/21 07:49:14;;;;;;;0.20;0.08;;;;;;;15.00;73.22;101317.72;5023696;28;20045;-88
2022/09/21 07:51:40;;;;;;;0.63;0.10;;;;;;;15.06;73.67;101316.28;5007376;28;20477;-85
2022/09/21 07:54:08;;;;;;;0.17;0.00;;;;;;;15.11;73.34;101314.03;5007503;28;20048;-87
2022/09/21 07:56:36;;;;;;;0.80;0.00;;;;;;;15.17;71.88;101318.66;5007797;28;20069;-85
2022/09/21 07:59:04;;;;;;;1.00;0.10;;;;;;;15.18;71.24;101325.53;5002573;28;20064;-84
2022/09/21 08:01:34;;;;;;;2.00;0.10;;;;;;;15.24;70.77;101317.88;5007912;28;20056;-87
2022/09/21 08:04:01;;;;;;;0.50;0.10;;;;;;;15.39;71.79;101322.56;5005468;28;20125;-85
2022/09/21 08:06:29;;;;;;;3.25;0.10;;;;;;;15.47;71.31;101320.81;5005979;28;20072;-85
2022/09/21 08:08:55;;;;;;;0.20;0.00;;;;;;;15.48;70.15;101329.53;5009374;28;20037;-85
2022/09/21 08:11:21;;;;;;;0.10;0.00;;;;;;;15.45;68.41;101328.03;5004827;28;20030;-85
2022/09/21 08:13:48;;;;;;;2.00;0.35;;;;;;;15.43;68.55;101324.75;5004609;28;20394;-84
2022/09/21 08:16:13;;;;;;;0.32;0.00;;;;;;;15.54;69.10;101326.28;5005689;28;20084;-85
2022/09/21 08:18:40;;;;;;;0.30;0.00;;;;;;;15.65;68.25;101333.06;5021931;28;20441;-85
2022/09/21 08:21:07;;;;;;;1.45;0.10;;;;;;;15.76;67.05;101332.81;5005038;28;20117;-87
2022/09/21 08:23:33;;;;;;;0.28;0.03;;;;;;;15.87;68.47;101335.16;5009416;28;20046;-87
2022/09/21 08:26:04;;;;;;;1.05;0.00;;;;;;;15.79;66.87;101335.13;5008773;28;20097;-85
2022/09/21 08:28:30;;;;;;;0.35;0.00;;;;;;;15.85;68.07;101329.25;5004706;28;20037;-84
2022/09/21 08:30:59;;;;;;;0.10;0.00;;;;;;;15.92;67.64;101332.88;5004320;28;20030;-87
2022/09/21 08:33:26;;;;;;;1.55;0.00;;;;;;;15.99;68.33;101339.16;5002657;28;20100;-87
2022/09/21 08:35:56;;;;;;;2.60;0.08;;;;;;;16.07;67.98;101333.13;5007022;28;20041;-86
2022/09/21 08:38:26;;;;;;;1.50;0.10;;;;;;;16.12;65.90;101336.88;5005687;28;20045;-85
2022/09/21 08:40:55;;;;;;;0.28;0.10;;;;;;;16.19;66.09;101331.81;5008403;28;20037;-84
2022/09/21 08:43:34;;;;;;;0.70;0.10;;;;;;;16.31;65.33;101341.06;5003450;28;20104;-86
2022/09/21 08:46:02;;;;;;;1.05;0.08;;;;;;;16.38;66.71;101338.63;5001271;28;20128;-86
2022/09/21 08:48:34;;;;;;;0.30;0.00;;;;;;;16.36;67.60;101332.69;5008329;28;20038;-85
2022/09/21 08:51:04;;;;;;;0.10;0.00;;;;;;;16.34;66.42;101335.47;5018006;28;20407;-85
2022/09/21 08:53:43;;;;;;;5.47;0.73;;;;;;;16.35;66.02;101337.13;4995193;28;20029;-85
2022/09/21 08:56:12;;;;;;;2.15;0.00;;;;;;;16.29;65.88;101332.50;5007377;28;20456;-87
2022/09/21 08:58:42;;;;;;;2.58;0.32;;;;;;;16.23;65.35;101327.88;5019662;28;20108;-84
2022/09/21 09:01:22;;;;;;;0.38;0.00;;;;;;;16.11;63.28;101335.25;5005477;28;20569;-86
2022/09/21 09:04:06;;;;;;;1.50;0.10;;;;;;;16.14;65.50;101329.66;5022870;28;20175;-85
2022/09/21 09:06:50;;;;;;;0.52;0.00;;;;;;;16.09;63.67;101321.44;5004349;28;20033;-84
2022/09/21 09:09:33;;;;;;;0.20;0.00;;;;;;;16.06;63.76;101334.94;4991731;28;20557;-85
2022/09/21 09:12:14;;;;;;;0.52;0.00;;;;;;;16.04;63.80;101326.38;5008900;28;20541;-87
2022/09/21 09:15:17;;;;;;;0.35;0.00;;;;;;;16.10;61.58;101332.78;5009077;28;20339;-85
2022/09/21 09:18:00;;;;;;;1.17;0.00;;;;;;;16.16;63.03;101321.63;5008397;28;20037;-84
2022/09/21 09:20:35;;;;;;;3.72;0.03;;;;;;;16.19;64.11;101316.88;5005697;28;20513;-85
2022/09/21 09:23:20;;;;;;;0.40;0.05;;;;;;;16.12;64.43;101321.13;4997029;28;20030;-85
2022/09/21 09:25:50;;;;;;;2.77;0.10;;;;;;;16.00;64.25;101311.91;4993946;28;20484;-85
2022/09/21 09:28:20;;;;;;;0.05;0.00;;;;;;;15.91;63.49;101315.47;5002905;28;20438;-84
2022/09/21 09:30:54;;;;;;;1.77;0.00;;;;;;;15.85;63.61;101313.47;5005743;28;20104;-86
2022/09/21 09:33:32;;;;;;;0.60;0.00;;;;;;;15.93;61.66;101305.63;4988771;28;20042;-86
2022/09/21 09:36:02;;;;;;;0.30;0.00;;;;;;;16.01;61.74;101313.53;4998349;28;20053;-85
2022/09/21 09:38:56;;;;;;;0.10;0.00;;;;;;;15.89;57.58;101306.94;5006353;28;20153;-86
2022/09/21 09:41:52;;;;;;;1.35;0.35;;;;;;;15.99;54.77;101310.25;5004399;28;20026;-85
2022/09/21 09:44:47;;;;;;;0.20;0.00;;;;;;;16.18;53.32;101314.41;5004469;28;20041;-85
2022/09/21 09:47:49;;;;;;;0.20;0.00;;;;;;;16.39;47.97;101303.44;4955298;28;20058;-85
2022/09/21 09:50:34;;;;;;;0.05;0.00;;;;;;;16.53;47.05;101289.66;4943051;28;20043;-86
2022/09/21 09:53:08;;;;;;;0.10;0.00;;;;;;;16.83;49.10;101283.75;4956384;28;20763;-85
2022/09/21 09:55:39;;;;;;;0.20;0.00;;;;;;;17.19;47.01;101284.19;4961632;28;20047;-85
2022/09/21 09:58:15;;;;;;;1.92;0.32;;;;;;;17.20;48.41;101280.56;4962211;28;20569;-86
2022/09/21 10:00:40;;;;;;;0.88;0.00;;;;;;;17.32;45.70;101278.41;4959370;28;20046;-84
2022/09/21 10:03:16;;;;;;;0.10;0.00;;;;;;;17.26;45.03;101284.34;4953358;28;20038;-86
2022/09/21 10:05:41;;;;;;;0.47;0.00;;;;;;;17.34;47.33;101286.97;4956124;28;20046;-87
2022/09/21 10:08:45;;;;;;;0.25;0.00;;;;;;;17.57;41.34;101287.88;4959782;28;20460;-87
2022/09/21 10:11:13;;;;;;;0.90;0.00;;;;;;;17.65;43.15;101287.06;4963235;28;20050;-84
2022/09/21 10:13:43;;;;;;;0.00;0.00;;;;;;;17.74;43.21;101287.84;4966926;28;20314;-86
2022/09/21 10:16:39;;;;;;;0.73;0.00;;;;;;;17.66;41.01;101285.25;4947786;28;20041;-85
2022/09/21 10:19:05;;;;;;;0.17;0.00;;;;;;;17.65;45.32;101275.66;4946939;28;20043;-84
2022/09/21 10:21:42;;;;;;;0.00;0.00;;;;;;;17.49;45.52;101274.72;4952278;28;20077;-87
2022/09/21 10:24:23;;;;;;;2.15;0.00;;;;;;;17.30;42.84;101269.03;4995483;28;20057;-86
2022/09/21 10:26:53;;;;;;;0.30;0.00;;;;;;;17.40;45.33;101270.50;5000777;28;20033;-83
2022/09/21 10:29:21;;;;;;;0.30;0.00;;;;;;;17.37;45.94;101260.28;5012175;28;20054;-87
2022/09/21 10:31:55;;;;;;;0.88;0.10;;;;;;;17.32;43.66;101262.63;5009565;28;20227;-86
2022/09/21 10:34:20;;;;;;;0.13;0.00;;;;;;;17.48;47.26;101251.22;4993895;28;20479;-85
2022/09/21 10:36:54;;;;;;;0.15;0.00;;;;;;;17.56;43.77;101249.34;4999167;28;20030;-85
2022/09/21 10:39:21;;;;;;;0.00;0.00;;;;;;;17.82;44.34;101246.47;5004853;28;20048;-88
2022/09/21 10:42:06;;;;;;;0.00;0.00;;;;;;;17.97;44.06;101250.97;5001053;28;20390;-86
2022/09/21 10:45:03;;;;;;;0.20;0.00;;;;;;;17.89;40.40;101246.59;4997355;28;20034;-86
2022/09/21 10:47:35;;;;;;;0.45;0.00;;;;;;;17.79;45.05;101254.72;5018072;28;20056;-85
2022/09/21 10:50:24;;;;;;;0.73;0.00;;;;;;;17.93;46.36;101250.53;5008821;28;20042;-84
2022/09/21 10:53:15;;;;;;;0.75;0.10;;;;;;;17.98;46.42;101242.91;5006766;28;20030;-85
2022/09/21 10:55:47;;;;;;;0.10;0.00;;;;;;;18.04;45.46;101257.19;4990279;28;20041;-86
2022/09/21 10:58:14;;;;;;;0.70;0.00;;;;;;;18.01;48.37;101254.91;4995723;28;20030;-86
2022/09/21 11:00:46;;;;;;;0.10;0.00;;;;;;;18.00;48.49;101256.72;5020809;28;20113;-87
2022/09/21 11:03:39;;;;;;;0.00;0.00;;;;;;;17.91;42.92;101252.53;5009337;28;20381;-85
2022/09/21 11:06:11;;;;;;;0.10;0.00;;;;;;;17.79;44.73;101251.25;5008444;28;20037;-86
2022/09/21 11:08:44;;;;;;;0.20;0.00;;;;;;;17.92;46.18;101259.44;5008908;28;20077;-86
2022/09/21 11:11:21;;;;;;;0.17;0.00;;;;;;;17.82;44.80;101256.19;5001296;28;20038;-85
2022/09/21 11:13:59;;;;;;;0.25;0.00;;;;;;;17.68;45.94;101251.63;5015351;28;20039;-85
2022/09/21 11:16:32;;;;;;;0.20;0.00;;;;;;;17.75;47.29;101250.78;5022187;28;20053;-86
2022/09/21 11:19:12;;;;;;;0.30;0.00;;;;;;;17.78;45.47;101250.44;5007904;28;20037;-85
2022/09/21 11:22:03;;;;;;;0.10;0.00;;;;;;;17.70;45.46;101244.38;5026147;28;20033;-84
2022/09/21 11:24:44;;;;;;;0.20;0.00;;;;;;;17.83;41.99;101250.75;5006877;28;20116;-88
2022/09/21 11:27:35;;;;;;;0.00;0.00;;;;;;;17.77;41.44;101250.59;5024668;28;20030;-84
2022/09/21 11:30:11;;;;;;;0.47;0.00;;;;;;;17.71;44.79;101241.56;4993735;28;20050;-85
2022/09/21 11:32:51;;;;;;;0.28;0.00;;;;;;;17.83;42.03;101244.66;5007906;28;20030;-86
2022/09/21 11:35:40;;;;;;;3.40;0.10;;;;;;;17.89;43.14;101239.50;5007100;28;20038;-86
2022/09/21 11:38:23;;;;;;;2.47;0.00;;;;;;;17.82;41.89;101245.66;5003588;28;20053;-85
2022/09/21 11:41:05;;;;;;;0.20;0.00;;;;;;;17.66;45.70;101251.81;5020751;28;20087;-87
2022/09/21 11:43:53;;;;;;;0.50;0.00;;;;;;;17.53;45.96;101240.94;5005028;28;20041;-87
2022/09/21 11:46:30;;;;;;;0.15;0.00;;;;;;;17.39;49.29;101247.78;5006648;28;20444;-85
2022/09/21 11:49:01;;;;;;;0.40;0.00;;;;;;;17.40;48.25;101238.06;5007931;28;20036;-86